Time;durP1;ratioP1;P1;durP2;ratioP2;P2;SDS_P1;SDS_P2;PMS_P1;PMS_P2;Temp;Humidity;BMP_temperature;BMP_pressure;BME280_temperature;BME280_humidity;BME280_pressure;Samples;Min_cycle;Max_cycle;Signal;HPM_P1;HPM_P2
2023/12/28 00:00:48;;;;;;;;;;;;;;;12.69;51.76;100428.41;4917829;28;113712;-64
2023/12/28 00:03:14;;;;;;;;;;;;;;;12.69;51.72;100433.81;4924352;28;98318;-63
2023/12/28 00:05:40;;;;;;;;;;;;;;;12.70;51.67;100431.91;4942376;28;98667;-65
2023/12/28 00:08:06;;;;;;;;;;;;;;;12.69;51.79;100428.41;4954461;28;121005;-65
2023/12/28 00:10:32;;;;;;;;;;;;;;;12.69;52.02;100438.41;4943024;28;118579;-65
2023/12/28 00:12:58;;;;;;;;;;;;;;;12.68;52.12;100432.19;4925014;28;98298;-64
2023/12/28 00:15:24;;;;;;;;;;;;;;;12.68;51.75;100417.84;4924012;28;98152;-63
2023/12/28 00:17:50;;;;;;;;;;;;;;;12.68;52.00;100407.84;4928022;28;98464;-65
2023/12/28 00:20:16;;;;;;;;;;;;;;;12.69;51.79;100408.66;4955362;28;106800;-65
2023/12/28 00:22:42;;;;;;;;;;;;;;;12.67;51.88;100384.59;4936803;28;127689;-65
2023/12/28 00:25:08;;;;;;;;;;;;;;;12.68;52.19;100388.91;4937693;28;100377;-63
2023/12/28 00:27:37;;;;;;;;;;;;;;;12.67;51.74;100378.38;4921441;28;98379;-65
2023/12/28 00:30:05;;;;;;;;;;;;;;;12.68;51.91;100397.03;4922379;28;98328;-63
2023/12/28 00:32:31;;;;;;;;;;;;;;;12.67;52.13;100394.63;4923396;28;98320;-65
2023/12/28 00:34:56;;;;;;;;;;;;;;;12.67;51.96;100398.13;4919852;28;122575;-65
2023/12/28 00:37:22;;;;;;;;;;;;;;;12.67;51.65;100408.13;4940934;28;122295;-65
2023/12/28 00:39:50;;;;;;;;;;;;;;;12.67;51.68;100402.72;4938056;28;100047;-63
2023/12/28 00:42:17;;;;;;;;;;;;;;;12.67;51.61;100394.63;4952115;28;98240;-65
2023/12/28 00:44:43;;;;;;;;;;;;;;;12.66;51.72;100398.41;4956643;28;112400;-65
2023/12/28 00:47:09;;;;;;;;;;;;;;;12.65;51.73;100391.38;4938765;28;121777;-63
2023/12/28 00:49:35;;;;;;;;;;;;;;;12.64;51.77;100385.16;4928058;28;98223;-65
2023/12/28 00:52:01;;;;;;;;;;;;;;;12.64;51.84;100373.53;4937448;28;100683;-65
2023/12/28 00:54:27;;;;;;;;;;;;;;;12.63;52.15;100361.91;4946192;28;98636;-65
2023/12/28 00:56:53;;;;;;;;;;;;;;;12.63;51.80;100363.81;4940739;28;122113;-65
2023/12/28 00:59:19;;;;;;;;;;;;;;;12.62;52.08;100354.09;4934650;28;128243;-65
2023/12/28 01:01:45;;;;;;;;;;;;;;;12.62;51.79;100351.41;4932842;28;97881;-63
2023/12/28 01:04:11;;;;;;;;;;;;;;;12.62;51.85;100346.00;4931760;28;98216;-66
2023/12/28 01:06:37;;;;;;;;;;;;;;;12.61;52.05;100350.56;4932572;28;100574;-63
2023/12/28 01:09:03;;;;;;;;;;;;;;;12.62;51.95;100348.69;4929123;28;98299;-65
2023/12/28 01:11:29;;;;;;;;;;;;;;;12.62;51.80;100354.09;4926856;28;98340;-63
2023/12/28 01:13:57;;;;;;;;;;;;;;;12.63;52.00;100353.00;4929359;28;99563;-63
2023/12/28 01:16:23;;;;;;;;;;;;;;;12.62;51.63;100348.69;4930047;28;98374;-63
2023/12/28 01:18:49;;;;;;;;;;;;;;;12.62;51.90;100352.19;4927095;28;98051;-65
2023/12/28 01:21:15;;;;;;;;;;;;;;;12.62;51.75;100359.50;4912755;28;120462;-65
2023/12/28 01:23:41;;;;;;;;;;;;;;;12.62;52.09;100357.59;4945259;28;120496;-63
2023/12/28 01:26:13;;;;;;;;;;;;;;;12.62;51.62;100360.31;4958147;28;97875;-65
2023/12/28 01:28:40;;;;;;;;;;;;;;;12.62;51.83;100354.91;4936880;28;98194;-63
2023/12/28 01:31:06;;;;;;;;;;;;;;;12.62;52.01;100346.00;4926364;28;98197;-65
2023/12/28 01:33:32;;;;;;;;;;;;;;;12.63;51.85;100355.72;4942216;28;100650;-65
2023/12/28 01:35:58;;;;;;;;;;;;;;;12.63;51.62;100334.06;4944503;28;99707;-65
2023/12/28 01:38:24;;;;;;;;;;;;;;;12.62;51.74;100329.78;4937376;28;126883;-63
2023/12/28 01:40:50;;;;;;;;;;;;;;;12.63;51.73;100334.06;4937645;28;98398;-64
2023/12/28 01:43:17;;;;;;;;;;;;;;;12.63;52.11;100343.00;4910461;28;127351;-63
2023/12/28 01:45:43;;;;;;;;;;;;;;;12.64;51.78;100347.31;4941015;28;99711;-63
2023/12/28 01:48:09;;;;;;;;;;;;;;;12.65;52.04;100337.28;4902271;28;98208;-63
2023/12/28 01:50:35;;;;;;;;;;;;;;;12.63;51.76;100345.69;4955954;28;98102;-65
2023/12/28 01:53:02;;;;;;;;;;;;;;;12.64;51.95;100341.09;4942214;28;98454;-63
2023/12/28 01:55:28;;;;;;;;;;;;;;;12.64;51.93;100339.19;4945781;28;101912;-65
2023/12/28 01:57:54;;;;;;;;;;;;;;;12.64;52.00;100333.78;4926704;28;125579;-65
2023/12/28 02:00:21;;;;;;;;;;;;;;;12.62;51.64;100314.34;4921244;28;116902;-65
2023/12/28 02:02:48;;;;;;;;;;;;;;;12.64;51.76;100311.34;4926760;28;107960;-64
2023/12/28 02:05:14;;;;;;;;;;;;;;;12.63;51.85;100307.84;4924995;28;98482;-65
2023/12/28 02:07:40;;;;;;;;;;;;;;;12.64;51.75;100312.16;4941083;28;98005;-63
2023/12/28 02:10:07;;;;;;;;;;;;;;;12.63;51.87;100315.16;4925163;28;98745;-65
2023/12/28 02:12:33;;;;;;;;;;;;;;;12.64;51.88;100322.16;4942482;28;98271;-65
2023/12/28 02:14:59;;;;;;;;;;;;;;;12.65;51.77;100318.34;4913464;28;109101;-65
2023/12/28 02:17:38;;;;;;;;;;;;;;;12.65;51.98;100319.16;4939085;28;106982;-63
2023/12/28 02:20:06;;;;;;;;;;;;;;;12.65;51.71;100319.16;4942376;28;98848;-64
2023/12/28 02:22:32;;;;;;;;;;;;;;;12.67;52.01;100318.91;4927357;28;100423;-65
2023/12/28 02:25:13;;;;;;;;;;;;;;;12.68;51.94;100312.38;4938636;28;101825;-65
2023/12/28 02:27:46;;;;;;;;;;;;;;;12.69;51.64;100324.81;4953314;28;98076;-64
2023/12/28 02:30:13;;;;;;;;;;;;;;;12.70;51.95;100329.16;4957382;28;98276;-65
2023/12/28 02:33:09;;;;;;;;;;;;;;;12.71;51.67;100318.03;4904137;28;98552;-65
2023/12/28 02:35:43;;;;;;;;;;;;;;;12.72;51.85;100318.84;4956038;28;98140;-65
2023/12/28 02:38:13;;;;;;;;;;;;;;;12.71;51.63;100314.53;4942177;28;100157;-65
2023/12/28 02:40:40;;;;;;;;;;;;;;;12.71;51.57;100319.94;4945707;28;114180;-63
2023/12/28 02:43:07;;;;;;;;;;;;;;;12.69;51.74;100306.72;4927296;28;98205;-65
2023/12/28 02:45:33;;;;;;;;;;;;;;;12.69;51.91;100300.47;4938313;28;98438;-64
2023/12/28 02:47:59;;;;;;;;;;;;;;;12.69;51.84;100303.19;4942335;28;98116;-65
2023/12/28 02:50:25;;;;;;;;;;;;;;;12.69;51.60;100305.88;4959037;28;128434;-65
2023/12/28 02:52:51;;;;;;;;;;;;;;;12.69;51.61;100308.59;4930787;28;128121;-63
2023/12/28 02:55:17;;;;;;;;;;;;;;;12.68;51.53;100301.56;4939702;28;98425;-63
2023/12/28 02:57:44;;;;;;;;;;;;;;;12.68;51.61;100299.66;4944098;28;98046;-65
2023/12/28 03:00:10;;;;;;;;;;;;;;;12.68;51.81;100298.88;4944012;28;112635;-64
2023/12/28 03:02:42;;;;;;;;;;;;;;;12.70;51.60;100321.03;4931369;28;98932;-63
2023/12/28 03:05:09;;;;;;;;;;;;;;;12.69;51.98;100333.75;4929750;28;98051;-63
2023/12/28 03:07:35;;;;;;;;;;;;;;;12.70;51.83;100340.78;4924583;28;98607;-65
2023/12/28 03:10:02;;;;;;;;;;;;;;;12.71;51.87;100336.97;4942685;28;98155;-65
2023/12/28 03:12:29;;;;;;;;;;;;;;;12.72;51.72;100326.94;4943473;28;98263;-63
2023/12/28 03:14:55;;;;;;;;;;;;;;;12.73;51.88;100334.81;4941191;28;98450;-63
2023/12/28 03:17:21;;;;;;;;;;;;;;;12.73;51.92;100339.38;4940596;28;98227;-63
2023/12/28 03:19:47;;;;;;;;;;;;;;;12.74;51.88;100325.59;4927894;28;118052;-64
2023/12/28 03:22:13;;;;;;;;;;;;;;;12.75;51.53;100323.69;4921486;28;127953;-65
2023/12/28 03:24:40;;;;;;;;;;;;;;;12.76;51.64;100303.66;4938618;28;99157;-63
2023/12/28 03:27:06;;;;;;;;;;;;;;;12.76;51.64;100304.47;4924377;28;98895;-65
2023/12/28 03:29:32;;;;;;;;;;;;;;;12.78;51.53;100307.69;4923912;28;98267;-65
2023/12/28 03:31:59;;;;;;;;;;;;;;;12.80;51.59;100310.09;4950493;28;120280;-65
2023/12/28 03:34:26;;;;;;;;;;;;;;;12.81;51.60;100310.91;4927576;28;98007;-65
2023/12/28 03:36:53;;;;;;;;;;;;;;;12.82;51.81;100316.03;4928672;28;98183;-63
2023/12/28 03:39:19;;;;;;;;;;;;;;;12.84;51.54;100310.34;4927230;28;98151;-65
2023/12/28 03:41:45;;;;;;;;;;;;;;;12.85;51.74;100318.19;4934961;28;126943;-63
2023/12/28 03:44:11;;;;;;;;;;;;;;;12.86;51.44;100311.69;4908241;28;111901;-64
2023/12/28 03:46:37;;;;;;;;;;;;;;;12.89;51.50;100318.41;4953867;28;130932;-63
2023/12/28 03:49:03;;;;;;;;;;;;;;;12.90;51.87;100328.94;4940979;28;98490;-65
2023/12/28 03:51:29;;;;;;;;;;;;;;;12.92;51.47;100324.03;4923479;28;129891;-63
2023/12/28 03:53:55;;;;;;;;;;;;;;;12.92;51.76;100326.75;4944174;28;103801;-64
2023/12/28 03:56:25;;;;;;;;;;;;;;;12.95;51.84;100328.09;4922921;28;128399;-65
2023/12/28 03:58:51;;;;;;;;;;;;;;;12.98;51.54;100320.22;4936768;28;128090;-63
2023/12/28 04:01:19;;;;;;;;;;;;;;;12.99;51.83;100326.41;4926621;28;98985;-65
2023/12/28 04:03:45;;;;;;;;;;;;;;;13.02;51.64;100323.16;4944356;28;98443;-65
2023/12/28 04:06:12;;;;;;;;;;;;;;;13.05;51.64;100332.56;4924314;28;98193;-63
2023/12/28 04:08:41;;;;;;;;;;;;;;;13.07;51.46;100331.19;4909112;28;98096;-63
2023/12/28 04:11:07;;;;;;;;;;;;;;;13.09;51.34;100323.63;4925495;28;107681;-65
2023/12/28 04:13:33;;;;;;;;;;;;;;;13.13;51.55;100334.69;4930502;28;97998;-63
2023/12/28 04:15:59;;;;;;;;;;;;;;;13.14;51.74;100328.97;4933877;28;98536;-65
2023/12/28 04:18:25;;;;;;;;;;;;;;;13.16;51.40;100336.78;4935066;28;120333;-63
2023/12/28 04:20:51;;;;;;;;;;;;;;;13.19;51.79;100336.22;4899446;28;99427;-63
2023/12/28 04:23:17;;;;;;;;;;;;;;;13.20;51.31;100349.47;4941246;28;98400;-64
2023/12/28 04:25:43;;;;;;;;;;;;;;;13.22;51.78;100344.56;4940362;28;98231;-65
2023/12/28 04:28:12;;;;;;;;;;;;;;;13.23;51.65;100359.75;4925549;28;98430;-65
2023/12/28 04:30:38;;;;;;;;;;;;;;;13.25;51.50;100354.88;4931134;28;125851;-65
2023/12/28 04:33:04;;;;;;;;;;;;;;;13.27;51.76;100355.38;4944200;28;98288;-63
2023/12/28 04:35:30;;;;;;;;;;;;;;;13.29;51.53;100360.50;4924928;28;98166;-63
2023/12/28 04:37:57;;;;;;;;;;;;;;;13.31;51.31;100368.34;4945696;28;98303;-63
2023/12/28 04:40:22;;;;;;;;;;;;;;;13.32;51.68;100359.91;4904895;28;98246;-65
2023/12/28 04:42:49;;;;;;;;;;;;;;;13.33;51.30;100353.44;4931137;28;124117;-63
2023/12/28 04:45:15;;;;;;;;;;;;;;;13.37;51.60;100361.78;4954766;28;99097;-64
2023/12/28 04:47:43;;;;;;;;;;;;;;;13.37;51.77;100368.00;4920016;28;98113;-63
2023/12/28 04:50:09;;;;;;;;;;;;;;;13.38;51.38;100353.34;4957790;27;117413;-63
2023/12/28 04:52:35;;;;;;;;;;;;;;;13.39;51.80;100363.09;4949670;28;98322;-65
2023/12/28 04:55:01;;;;;;;;;;;;;;;13.41;51.54;100371.75;4924509;28;99199;-65
2023/12/28 04:57:28;;;;;;;;;;;;;;;13.42;51.53;100370.63;4940866;28;129903;-63
2023/12/28 04:59:54;;;;;;;;;;;;;;;13.43;51.63;100377.66;4926866;28;99363;-63
2023/12/28 05:02:20;;;;;;;;;;;;;;;13.43;51.67;100380.38;4940142;28;99018;-64
2023/12/28 05:04:46;;;;;;;;;;;;;;;13.43;51.76;100383.06;4924115;28;127522;-63
2023/12/28 05:07:12;;;;;;;;;;;;;;;13.44;51.76;100375.75;4933051;28;100186;-63
2023/12/28 05:09:38;;;;;;;;;;;;;;;13.44;51.88;100390.13;4941038;28;103955;-63
2023/12/28 05:12:04;;;;;;;;;;;;;;;13.44;51.74;100395.53;4946802;28;119389;-64
2023/12/28 05:14:30;;;;;;;;;;;;;;;13.44;51.69;100389.28;4950656;28;98282;-64
2023/12/28 05:16:56;;;;;;;;;;;;;;;13.44;51.55;100389.28;4909858;28;129928;-64
2023/12/28 05:19:22;;;;;;;;;;;;;;;13.43;51.67;100380.38;4929872;28;128883;-64
2023/12/28 05:21:48;;;;;;;;;;;;;;;13.43;51.42;100385.78;4946486;28;122038;-66
2023/12/28 05:24:14;;;;;;;;;;;;;;;13.44;51.78;100397.41;4928883;28;100008;-66
2023/12/28 05:26:40;;;;;;;;;;;;;;;13.44;51.45;100397.41;4943125;28;105974;-64
2023/12/28 05:29:06;;;;;;;;;;;;;;;13.45;51.36;100396.34;4938133;28;98494;-64
2023/12/28 05:31:33;;;;;;;;;;;;;;;13.44;51.46;100413.66;4931391;28;107351;-64
2023/12/28 05:33:59;;;;;;;;;;;;;;;13.44;51.67;100408.25;4923505;28;98479;-64
2023/12/28 05:36:25;;;;;;;;;;;;;;;13.46;51.36;100416.91;4942954;28;98096;-66
2023/12/28 05:38:51;;;;;;;;;;;;;;;13.52;51.75;100404.94;4921557;28;111168;-66
2023/12/28 05:41:17;;;;;;;;;;;;;;;13.59;51.45;100399.16;4924366;28;98228;-64
2023/12/28 05:43:44;;;;;;;;;;;;;;;13.67;51.66;100409.34;4937706;28;98284;-64
2023/12/28 05:46:10;;;;;;;;;;;;;;;13.72;51.54;100410.09;4951678;28;110756;-65
2023/12/28 05:48:36;;;;;;;;;;;;;;;13.77;51.71;100411.13;4937653;28;127843;-64
2023/12/28 05:51:02;;;;;;;;;;;;;;;13.82;51.58;100419.19;4934926;28;98982;-64
2023/12/28 05:53:29;;;;;;;;;;;;;;;13.85;51.60;100430.25;4936318;28;98313;-66
2023/12/28 05:55:55;;;;;;;;;;;;;;;13.88;51.64;100445.16;4939480;28;99627;-66
2023/12/28 05:58:21;;;;;;;;;;;;;;;13.90;51.91;100446.44;4938522;28;99412;-64
2023/12/28 06:00:48;;;;;;;;;;;;;;;13.92;51.52;100444.28;4939726;28;98893;-66
2023/12/28 06:03:14;;;;;;;;;;;;;;;13.94;51.61;100439.34;4925757;28;98761;-64
2023/12/28 06:05:40;;;;;;;;;;;;;;;13.95;51.42;100427.44;4918796;28;124925;-65
2023/12/28 06:08:07;;;;;;;;;;;;;;;13.97;51.77;100425.22;4939072;28;98771;-64
2023/12/28 06:10:33;;;;;;;;;;;;;;;14.00;51.71;100426.56;4907265;28;98078;-66
2023/12/28 06:12:59;;;;;;;;;;;;;;;13.99;51.58;100431.19;4939351;28;127666;-62
2023/12/28 06:15:24;;;;;;;;;;;;;;;14.00;51.47;100431.97;4938189;28;100342;-62
2023/12/28 06:17:51;;;;;;;;;;;;;;;14.03;51.44;100438.69;4918723;28;130024;-63
2023/12/28 06:20:19;;;;;;;;;;;;;;;14.03;51.40;100434.13;4923582;28;98265;-63
2023/12/28 06:22:48;;;;;;;;;;;;;;;14.03;51.59;100428.69;4916607;28;98827;-65
2023/12/28 06:25:14;;;;;;;;;;;;;;;14.04;51.58;100435.72;4915936;28;98302;-65
2023/12/28 06:27:40;;;;;;;;;;;;;;;14.04;51.42;100443.84;4925634;28;114908;-63
2023/12/28 06:30:07;;;;;;;;;;;;;;;14.05;51.82;100442.75;4940086;28;113703;-64
2023/12/28 06:32:33;;;;;;;;;;;;;;;14.06;51.76;100451.69;4940446;28;98058;-64
2023/12/28 06:34:59;;;;;;;;;;;;;;;14.08;51.85;100454.91;4936341;28;113110;-63
2023/12/28 06:37:25;;;;;;;;;;;;;;;14.07;51.50;100459.53;4939826;28;98272;-64
2023/12/28 06:39:52;;;;;;;;;;;;;;;14.08;51.68;100468.47;4904993;28;99315;-64
2023/12/28 06:42:18;;;;;;;;;;;;;;;14.09;51.72;100461.94;4925387;28;100236;-65
2023/12/28 06:44:44;;;;;;;;;;;;;;;14.10;51.94;100466.25;4924549;28;98338;-64
2023/12/28 06:47:10;;;;;;;;;;;;;;;14.10;51.70;100468.97;4933558;28;97911;-65
2023/12/28 06:49:36;;;;;;;;;;;;;;;14.11;51.77;100468.69;4935434;28;124830;-64
2023/12/28 06:52:02;;;;;;;;;;;;;;;14.11;51.44;100476.84;4938456;28;98365;-63
2023/12/28 06:54:28;;;;;;;;;;;;;;;14.12;51.81;100483.84;4930220;28;99708;-63
2023/12/28 06:56:54;;;;;;;;;;;;;;;14.13;51.59;100487.38;4938096;28;127372;-65
2023/12/28 06:59:20;;;;;;;;;;;;;;;14.13;51.47;100493.59;4933374;28;122759;-64
2023/12/28 07:01:48;;;;;;;;;;;;;;;14.14;51.87;100481.66;4948925;28;98205;-65
2023/12/28 07:04:14;;;;;;;;;;;;;;;14.14;51.52;100478.94;4950255;28;98154;-65
2023/12/28 07:06:40;;;;;;;;;;;;;;;14.15;51.89;100474.34;4941602;28;98885;-65
2023/12/28 07:09:06;;;;;;;;;;;;;;;14.15;51.84;100475.16;4954131;28;98111;-66
2023/12/28 07:11:32;;;;;;;;;;;;;;;14.15;51.45;100480.56;4911930;28;98345;-66
2023/12/28 07:13:58;;;;;;;;;;;;;;;14.16;51.61;100503.88;4924762;28;128733;-65
2023/12/28 07:16:26;;;;;;;;;;;;;;;14.16;51.60;100514.72;4906227;28;121515;-63
2023/12/28 07:18:52;;;;;;;;;;;;;;;14.16;51.84;100505.78;4937803;28;98453;-63
2023/12/28 07:21:19;;;;;;;;;;;;;;;14.16;51.35;100503.88;4936200;28;98856;-63
2023/12/28 07:23:49;;;;;;;;;;;;;;;14.17;51.49;100505.47;4921527;28;98711;-65
2023/12/28 07:26:15;;;;;;;;;;;;;;;14.18;51.49;100490.00;4910337;28;99526;-64
2023/12/28 07:28:44;;;;;;;;;;;;;;;14.18;51.78;100496.22;4937220;28;98293;-64
2023/12/28 07:31:10;;;;;;;;;;;;;;;14.19;51.73;100494.34;4920075;28;99451;-65
2023/12/28 07:33:36;;;;;;;;;;;;;;;14.19;51.43;100500.59;4934398;28;113624;-65
2023/12/28 07:36:03;;;;;;;;;;;;;;;14.19;51.81;100495.16;4938099;28;126423;-65
2023/12/28 07:38:29;;;;;;;;;;;;;;;14.20;51.27;100485.91;4920934;28;98159;-66
2023/12/28 07:40:55;;;;;;;;;;;;;;;14.21;51.34;100492.94;4922261;28;128168;-65
2023/12/28 07:43:21;;;;;;;;;;;;;;;14.22;51.45;100494.56;4935342;28;128316;-65
2023/12/28 07:45:47;;;;;;;;;;;;;;;14.23;51.66;100492.69;4921571;28;99116;-64
2023/12/28 07:48:13;;;;;;;;;;;;;;;14.24;51.25;100500.50;4937089;28;97989;-65
2023/12/28 07:50:39;;;;;;;;;;;;;;;14.25;51.60;100502.13;4921357;28;100724;-65
2023/12/28 07:53:06;;;;;;;;;;;;;;;14.27;51.57;100501.84;4922369;28;100915;-66
2023/12/28 07:55:32;;;;;;;;;;;;;;;14.29;51.55;100515.91;4950898;28;99232;-64
2023/12/28 07:57:58;;;;;;;;;;;;;;;14.29;51.55;100510.47;4903106;28;99171;-64
2023/12/28 08:00:24;;;;;;;;;;;;;;;14.33;51.50;100510.69;4919910;28;98458;-65
2023/12/28 08:02:50;;;;;;;;;;;;;;;14.35;51.18;100495.75;4951258;28;127776;-64
2023/12/28 08:05:16;;;;;;;;;;;;;;;14.38;51.19;100497.91;4920522;28;99491;-64
2023/12/28 08:07:42;;;;;;;;;;;;;;;14.43;51.77;100513.28;4924424;28;101138;-65
2023/12/28 08:10:08;;;;;;;;;;;;;;;14.45;51.50;100513.78;4922597;28;130629;-65
2023/12/28 08:12:35;;;;;;;;;;;;;;;14.48;51.25;100507.78;4923890;28;112144;-64
2023/12/28 08:15:01;;;;;;;;;;;;;;;14.52;51.31;100497.19;4936595;28;98278;-65
2023/12/28 08:17:27;;;;;;;;;;;;;;;14.54;51.24;100498.53;4935063;28;124974;-65
2023/12/28 08:19:53;;;;;;;;;;;;;;;14.59;51.32;100508.50;4901140;28;99502;-66
2023/12/28 08:22:20;;;;;;;;;;;;;;;14.63;51.32;100517.66;4934341;28;98349;-63
2023/12/28 08:24:47;;;;;;;;;;;;;;;14.66;51.14;100519.78;4918232;28;98445;-64
2023/12/28 08:27:14;;;;;;;;;;;;;;;14.68;51.17;100518.38;4900250;28;101307;-64
2023/12/28 08:29:41;;;;;;;;;;;;;;;14.70;51.17;100529.75;4920882;28;99509;-66
2023/12/28 08:32:08;;;;;;;;;;;;;;;14.73;51.38;100531.06;4934097;28;98271;-64
2023/12/28 08:34:34;;;;;;;;;;;;;;;14.77;51.04;100534.81;4951439;28;99369;-65
2023/12/28 08:36:59;;;;;;;;;;;;;;;14.83;51.33;100538.25;4906553;28;124685;-64
2023/12/28 08:39:25;;;;;;;;;;;;;;;14.89;51.23;100543.31;4914383;28;98609;-65
2023/12/28 08:41:51;;;;;;;;;;;;;;;14.93;51.20;100541.66;4902887;28;127404;-64
2023/12/28 08:44:17;;;;;;;;;;;;;;;14.98;50.98;100548.91;4936948;28;98497;-64
2023/12/28 08:46:44;;;;;;;;;;;;;;;15.02;51.24;100549.91;4928305;28;98399;-64
2023/12/28 08:49:10;;;;;;;;;;;;;;;15.07;50.92;100557.19;4916341;28;98546;-65
2023/12/28 08:51:36;;;;;;;;;;;;;;;15.12;51.15;100554.38;4937193;28;118790;-64
2023/12/28 08:54:02;;;;;;;;;;;;;;;15.15;51.14;100551.88;4901481;28;99911;-64
2023/12/28 08:56:28;;;;;;;;;;;;;;;15.19;51.13;100554.81;4921877;28;97984;-64
2023/12/28 08:58:54;;;;;;;;;;;;;;;15.21;51.07;100552.63;4887267;28;130405;-64
2023/12/28 09:01:25;;;;;;;;;;;;;;;15.23;51.10;100551.19;4899938;28;98114;-64
2023/12/28 09:03:51;;;;;;;;;;;;;;;15.29;50.97;100556.53;4916888;28;98542;-64
2023/12/28 09:06:18;;;;;;;;;;;;;;;15.32;51.18;100566.81;4912733;28;99030;-64
2023/12/28 09:08:44;;;;;;;;;;;;;;;15.37;50.90;100562.13;4918621;28;98235;-65
2023/12/28 09:11:11;;;;;;;;;;;;;;;15.42;51.03;100566.66;4936974;28;99413;-65
2023/12/28 09:13:38;;;;;;;;;;;;;;;15.45;50.99;100571.50;4919260;28;99876;-65
2023/12/28 09:16:05;;;;;;;;;;;;;;;15.47;50.92;100570.09;4937446;28;98358;-65
2023/12/28 09:18:30;;;;;;;;;;;;;;;15.47;51.09;100566.56;4890429;28;98153;-65
2023/12/28 09:20:57;;;;;;;;;;;;;;;15.49;51.23;100558.13;4919540;28;129373;-64
2023/12/28 09:23:23;;;;;;;;;;;;;;;15.49;51.11;100574.44;4883254;28;121912;-65
2023/12/28 09:25:49;;;;;;;;;;;;;;;15.49;51.03;100571.72;4928066;28;120777;-66
2023/12/28 09:28:15;;;;;;;;;;;;;;;15.49;51.16;100579.88;4940575;28;124592;-64
2023/12/28 09:30:41;;;;;;;;;;;;;;;15.49;50.96;100594.25;4921501;28;110375;-65
2023/12/28 09:33:07;;;;;;;;;;;;;;;15.47;50.98;100591.00;4935899;28;127929;-64
2023/12/28 09:35:35;;;;;;;;;;;;;;;15.48;51.17;100589.91;4953325;28;98126;-64
2023/12/28 09:38:01;;;;;;;;;;;;;;;15.48;51.03;100592.63;4938314;28;98398;-65
2023/12/28 09:40:27;;;;;;;;;;;;;;;15.47;51.25;100586.38;4951703;28;98654;-65
2023/12/28 09:43:19;;;;;;;;;;;;;;;15.47;51.07;100585.59;4949550;28;121632;-63
2023/12/28 09:45:49;;;;;;;;;;;;;;;15.48;51.26;100587.19;4921687;28;103560;-65
2023/12/28 09:48:20;;;;;;;;;;;;;;;15.47;51.07;100583.66;4935976;28;98380;-64
2023/12/28 09:50:49;;;;;;;;;;;;;;;15.47;51.41;100585.59;4907677;28;107535;-64
2023/12/28 09:53:15;;;;;;;;;;;;;;;15.47;51.11;100585.59;4904305;28;98461;-64
2023/12/28 09:55:42;;;;;;;;;;;;;;;15.47;51.31;100588.28;4936016;28;98183;-64
2023/12/28 09:58:08;;;;;;;;;;;;;;;15.48;51.21;100576.31;4922800;28;99418;-63
2023/12/28 10:00:34;;;;;;;;;;;;;;;15.52;51.22;100581.97;4918785;28;124939;-64
2023/12/28 10:03:00;;;;;;;;;;;;;;;15.52;51.10;100582.78;4906668;28;99732;-64
2023/12/28 10:05:26;;;;;;;;;;;;;;;15.54;51.08;100575.16;4919632;28;101169;-65
2023/12/28 10:07:52;;;;;;;;;;;;;;;15.59;50.95;100571.53;4937185;28;119482;-64
2023/12/28 10:10:19;;;;;;;;;;;;;;;15.63;51.13;100564.41;4921075;28;98526;-64
2023/12/28 10:12:46;;;;;;;;;;;;;;;15.68;51.05;100554.28;4917755;28;98321;-65
2023/12/28 10:15:12;;;;;;;;;;;;;;;15.72;51.10;100562.66;4913703;28;98694;-65
2023/12/28 10:17:39;;;;;;;;;;;;;;;15.76;50.96;100557.41;4938141;28;98376;-65
2023/12/28 10:20:09;;;;;;;;;;;;;;;15.81;50.94;100551.91;4936587;28;99003;-65
2023/12/28 10:22:38;;;;;;;;;;;;;;;15.84;51.13;100549.38;4940761;28;99548;-65
2023/12/28 10:25:04;;;;;;;;;;;;;;;15.85;51.09;100558.34;4952850;28;111176;-65
2023/12/28 10:27:30;;;;;;;;;;;;;;;15.87;51.11;100561.56;4940013;28;100628;-65
2023/12/28 10:29:56;;;;;;;;;;;;;;;15.88;51.13;100553.13;4923479;28;128100;-65
2023/12/28 10:32:24;;;;;;;;;;;;;;;15.91;50.93;100562.56;4917407;28;98371;-65
2023/12/28 10:34:52;;;;;;;;;;;;;;;15.92;50.93;100558.75;4939539;28;99812;-65
2023/12/28 10:37:18;;;;;;;;;;;;;;;15.94;51.08;100560.06;4916625;28;99044;-64
2023/12/28 10:39:46;;;;;;;;;;;;;;;15.95;51.03;100555.41;4924061;28;98287;-65
2023/12/28 10:42:14;;;;;;;;;;;;;;;15.96;50.95;100554.31;4938244;28;99336;-67
2023/12/28 10:44:40;;;;;;;;;;;;;;;16.01;51.09;100558.84;4942442;28;98448;-63
2023/12/28 10:47:06;;;;;;;;;;;;;;;16.06;50.95;100556.84;4939066;28;113692;-64
2023/12/28 10:49:33;;;;;;;;;;;;;;;16.10;50.82;100552.41;4937722;28;98348;-65
2023/12/28 10:51:59;;;;;;;;;;;;;;;16.15;50.90;100563.19;4924854;28;105029;-64
2023/12/28 10:54:34;;;;;;;;;;;;;;;16.18;50.80;100548.19;4896369;28;115640;-65
2023/12/28 10:57:06;;;;;;;;;;;;;;;16.22;50.92;100554.63;4920046;28;107857;-64
2023/12/28 10:59:48;;;;;;;;;;;;;;;16.28;50.77;100549.91;4932814;28;99815;-65
2023/12/28 11:02:17;;;;;;;;;;;;;;;16.31;50.89;100560.97;4949106;28;98417;-63
2023/12/28 11:04:50;;;;;;;;;;;;;;;16.36;50.75;100555.44;4939306;28;98226;-65
2023/12/28 11:07:19;;;;;;;;;;;;;;;16.40;50.83;100555.63;4928879;28;99345;-64
2023/12/28 11:09:48;;;;;;;;;;;;;;;16.43;50.92;100552.31;4936305;28;98482;-65
2023/12/28 11:12:17;;;;;;;;;;;;;;;16.45;50.74;100544.63;4938707;28;128650;-65
2023/12/28 11:14:43;;;;;;;;;;;;;;;16.45;50.82;100542.72;4921796;28;98177;-64
2023/12/28 11:17:10;;;;;;;;;;;;;;;16.47;50.88;100547.88;4949811;28;103789;-65
2023/12/28 11:19:36;;;;;;;;;;;;;;;16.49;50.75;100550.28;4939685;28;99689;-65
2023/12/28 11:22:03;;;;;;;;;;;;;;;16.51;50.74;100558.94;4923479;28;98419;-65
2023/12/28 11:24:31;;;;;;;;;;;;;;;16.51;50.85;100564.38;4940068;28;98081;-65
2023/12/28 11:26:57;;;;;;;;;;;;;;;16.51;50.90;100569.84;4944162;28;98091;-65
2023/12/28 11:29:24;;;;;;;;;;;;;;;16.49;50.82;100570.13;4940185;28;98157;-64
2023/12/28 11:31:58;;;;;;;;;;;;;;;16.46;50.96;100568.00;4952210;28;98806;-65
2023/12/28 11:34:33;;;;;;;;;;;;;;;16.42;50.92;100565.06;4936156;28;98288;-64
2023/12/28 11:37:03;;;;;;;;;;;;;;;16.39;51.03;100562.19;4949122;28;98257;-65
2023/12/28 11:39:33;;;;;;;;;;;;;;;16.35;51.05;100556.53;4058887;28;10000519;-64
2023/12/28 11:42:03;;;;;;;;;;;;;;;16.31;50.97;100557.44;4933847;28;98358;-65
2023/12/28 11:44:41;;;;;;;;;;;;;;;16.25;51.18;100550.50;4940761;28;99484;-64
2023/12/28 11:47:24;;;;;;;;;;;;;;;16.19;51.24;100566.94;4924146;28;99805;-66
2023/12/28 11:49:54;;;;;;;;;;;;;;;16.14;51.07;100561.56;4951189;28;100554;-65
2023/12/28 11:52:25;;;;;;;;;;;;;;;16.11;51.18;100569.53;4938767;28;98128;-64
2023/12/28 11:54:51;;;;;;;;;;;;;;;16.05;51.26;100576.19;4937117;28;98486;-65
2023/12/28 11:57:17;;;;;;;;;;;;;;;16.00;51.37;100573.56;4922025;28;99304;-64
2023/12/28 11:59:43;;;;;;;;;;;;;;;15.94;51.41;100572.84;4919745;28;99041;-65
2023/12/28 12:02:10;;;;;;;;;;;;;;;15.90;51.29;100552.81;4936862;28;98253;-66
2023/12/28 12:04:37;;;;;;;;;;;;;;;15.88;51.34;100553.13;4958751;28;101833;-66
2023/12/28 12:07:04;;;;;;;;;;;;;;;15.87;51.34;100543.31;4934057;28;107199;-65
2023/12/28 12:09:34;;;;;;;;;;;;;;;15.87;51.36;100540.59;4940281;28;98398;-64
2023/12/28 12:12:04;;;;;;;;;;;;;;;15.88;51.18;100550.41;4925231;28;97999;-65
2023/12/28 12:14:31;;;;;;;;;;;;;;;15.88;51.19;100550.41;4941975;28;98402;-64
2023/12/28 12:16:58;;;;;;;;;;;;;;;15.85;51.36;100544.75;4943950;28;100014;-64
2023/12/28 12:19:25;;;;;;;;;;;;;;;15.82;51.43;100548.88;4925544;28;98367;-65
2023/12/28 12:21:52;;;;;;;;;;;;;;;15.79;51.28;100543.22;4918747;28;99831;-64
2023/12/28 12:24:19;;;;;;;;;;;;;;;15.77;51.33;100542.72;4937495;28;99376;-66
2023/12/28 12:26:46;;;;;;;;;;;;;;;15.74;51.27;100549.56;4939847;28;98288;-64
2023/12/28 12:29:14;;;;;;;;;;;;;;;15.70;51.50;100549.34;4940230;28;99340;-64
2023/12/28 12:31:41;;;;;;;;;;;;;;;15.68;51.20;100543.41;4905576;28;98439;-65